Карточка аэропорта USSS

Внимание!
Информация на этой странице в стадии наполнения.
Если вы не увидели какой-то информации, или заметили неточность - пожалуйста сообщите нам!
Спасибо!
Команда RU-STAFF
Название аэропортаКольцово
Название аэропорта (англ.)Koltsovo
Превышение766 ft. (233.5 m.)
Координаты56°44.586', 60°48.186'
Высота перехода4000ft
Эшелон переходаQNH>=1013hPa:FL50; QNH 1013hPa-977hPa:FL60; QNH<=977hpa:FL70
Коды ответчика5520-5557
Зона ОрВДЕкатеринбург РПИ (USSV)
Данные METARUSSS 190200Z 03005MPS 9999 SCT018 BKN040 05/01 Q1018 R08R/010060 R08L/290040 NOSIG RMK QFE744/0992
Проноз погоды (TAF)USSS 190155Z 1903/2003 03005G17MPS 9999 BKN016CB BECMG 1906/1909 SCT040 BECMG 1915/1918 34003G08MPS
NOTAMshow/hide NOTAM
AWOS   TABLE

Информация о ВПП

ВПП Длина ВПП (м.) Покрытие Курс ВПП Частота ILS
08L3004Асфальтобетон75111.7
08R3026Бетон79109.9
26L3026Бетон259109.5
26R3004Асфальтобетон255110.5

Диспетчерские позиции

Позывной Наименование органа УВД Частота
USSV_FSS_CTRКольцово Транзит131.900
USSS_TWRКольцово-Старт124.3
USSS_R_APPКольцово-Круг118.7
USSS_GNDКольцово-Руление119.0
USSS_ATIS_APPКольцово АТИС127.850
USSS_APPКольцово-Подход125.9
USSSFM1Машина сопровождения119.000



Спутниковое изображение